Time;durP1;ratioP1;P1;durP2;ratioP2;P2;SDS_P1;SDS_P2;PMS_P1;PMS_P2;Temp;Humidity;BMP_temperature;BMP_pressure;BME280_temperature;BME280_humidity;BME280_pressure;Samples;Min_cycle;Max_cycle;Signal;HPM_P1;HPM_P2
2021/01/07 00:02:25;;;;;;;3.85;2.20;;;;;;;11.11;65.16;99450.69;5015786;28;20029;-79
2021/01/07 00:04:50;;;;;;;3.85;2.33;;;;;;;11.57;65.55;99524.50;5015625;28;20122;-78
2021/01/07 00:07:15;;;;;;;4.32;2.40;;;;;;;11.58;64.70;99523.50;5014645;28;20041;-80
2021/01/07 00:09:41;;;;;;;6.80;2.78;;;;;;;11.52;65.07;99511.00;5015503;28;20033;-80
2021/01/07 00:12:06;;;;;;;4.45;2.65;;;;;;;11.28;65.38;99481.22;5015505;28;20034;-80
2021/01/07 00:14:32;;;;;;;5.25;2.92;;;;;;;11.59;65.63;99525.94;5015406;28;20321;-81
2021/01/07 00:16:57;;;;;;;6.07;2.85;;;;;;;11.29;65.20;99487.34;5015338;28;20401;-81
2021/01/07 00:19:22;;;;;;;4.80;2.70;;;;;;;11.21;65.34;99475.03;5015473;28;20034;-78
2021/01/07 00:21:48;;;;;;;4.65;2.38;;;;;;;11.16;65.63;99474.78;5015280;28;20417;-80
2021/01/07 00:24:14;;;;;;;4.65;2.25;;;;;;;11.30;65.56;99503.00;5015482;28;20034;-82
2021/01/07 00:26:39;;;;;;;4.18;2.60;;;;;;;11.03;65.62;99461.34;5014124;28;20392;-79
2021/01/07 00:29:06;;;;;;;3.85;2.33;;;;;;;11.51;65.86;99546.38;5015214;28;20148;-81
2021/01/07 00:31:31;;;;;;;5.32;2.58;;;;;;;11.62;65.67;99554.66;5015150;28;20029;-81
2021/01/07 00:33:57;;;;;;;4.25;2.40;;;;;;;11.43;65.85;99532.25;5015122;28;20364;-81
2021/01/07 00:36:22;;;;;;;9.45;3.25;;;;;;;11.04;66.04;99466.47;5015323;28;20022;-80
2021/01/07 00:38:48;;;;;;;4.50;2.58;;;;;;;11.55;65.90;99550.31;5014973;28;20029;-80
2021/01/07 00:41:17;;;;;;;8.48;2.75;;;;;;;10.83;65.69;99432.84;5015184;28;20087;-78
2021/01/07 00:43:43;;;;;;;5.35;2.95;;;;;;;11.34;65.75;99514.03;5013828;28;20433;-81
2021/01/07 00:46:09;;;;;;;7.60;2.78;;;;;;;11.30;65.92;99494.25;5014825;28;20057;-82
2021/01/07 00:48:34;;;;;;;4.70;2.58;;;;;;;11.50;65.77;99508.53;5015006;28;20076;-79
2021/01/07 00:51:00;;;;;;;5.07;2.95;;;;;;;11.25;66.19;99467.56;5013765;28;20187;-80
2021/01/07 00:53:25;;;;;;;6.78;2.92;;;;;;;11.52;66.17;99518.94;5014868;28;20036;-81
2021/01/07 00:55:51;;;;;;;6.93;2.92;;;;;;;11.14;65.56;99440.56;5014801;28;20040;-80
2021/01/07 00:58:16;;;;;;;8.98;3.38;;;;;;;11.33;66.45;99475.38;5014909;28;20061;-80
2021/01/07 01:00:41;;;;;;;5.07;3.50;;;;;;;11.49;66.30;99491.03;5014309;28;20085;-78
2021/01/07 01:03:07;;;;;;;8.75;4.38;;;;;;;11.08;66.45;99441.31;5014772;28;20425;-81
2021/01/07 01:05:32;;;;;;;5.30;2.72;;;;;;;10.75;66.10;99369.56;5014876;28;20088;-81
2021/01/07 01:07:58;;;;;;;4.70;3.05;;;;;;;11.50;66.85;99481.28;5014704;28;20029;-79
2021/01/07 01:10:24;;;;;;;7.65;3.05;;;;;;;11.07;66.08;99401.84;5013693;28;20030;-81
2021/01/07 01:12:49;;;;;;;3.75;2.20;;;;;;;11.04;66.03;99395.13;5013520;28;20036;-80
2021/01/07 01:15:16;;;;;;;3.47;2.38;;;;;;;11.52;65.99;99447.56;5014725;28;20120;-80
2021/01/07 01:17:42;;;;;;;7.70;2.90;;;;;;;11.24;67.14;99379.53;5013459;28;20371;-79
2021/01/07 01:20:10;;;;;;;4.45;2.20;;;;;;;11.22;66.02;99378.91;5014632;28;20034;-79
2021/01/07 01:22:36;;;;;;;4.70;2.30;;;;;;;11.54;66.19;99435.78;5014828;28;20037;-80
2021/01/07 01:25:08;;;;;;;2.58;1.77;;;;;;;11.43;65.92;99415.94;5014405;28;20033;-79
2021/01/07 01:27:34;;;;;;;4.05;1.90;;;;;;;11.44;65.85;99406.19;5013641;28;20072;-77
2021/01/07 01:29:59;;;;;;;3.22;1.75;;;;;;;11.36;66.45;99407.13;5013568;28;20054;-80
2021/01/07 01:32:25;;;;;;;3.10;2.08;;;;;;;11.38;65.88;99391.06;5014484;28;20061;-77
2021/01/07 01:34:50;;;;;;;4.68;2.30;;;;;;;11.16;66.32;99352.41;5014506;28;20087;-80
2021/01/07 01:37:16;;;;;;;4.40;1.98;;;;;;;11.30;65.53;99375.31;5014517;28;20113;-80
2021/01/07 01:39:41;;;;;;;7.20;2.60;;;;;;;11.74;65.97;99450.03;5014388;28;20025;-79
2021/01/07 01:42:07;;;;;;;3.88;2.05;;;;;;;11.77;66.29;99460.28;5014347;28;20409;-77
2021/01/07 01:44:32;;;;;;;5.80;2.50;;;;;;;11.61;66.18;99449.06;5014525;28;20025;-78
2021/01/07 01:46:57;;;;;;;3.88;2.13;;;;;;;11.19;65.92;99358.13;5013172;28;20468;-76
2021/01/07 01:49:24;;;;;;;5.75;2.53;;;;;;;11.75;65.98;99445.56;5014426;28;20413;-79
2021/01/07 01:51:50;;;;;;;6.68;2.70;;;;;;;11.74;66.18;99436.00;5014206;28;20033;-78
2021/01/07 01:54:15;;;;;;;3.80;2.15;;;;;;;11.59;65.54;99406.13;5013328;28;20368;-80
2021/01/07 01:56:45;;;;;;;6.95;2.20;;;;;;;11.28;66.16;99359.66;5014324;28;20017;-79
2021/01/07 01:59:11;;;;;;;4.68;2.67;;;;;;;11.76;66.28;99426.03;5014337;28;20432;-76
2021/01/07 02:01:36;;;;;;;7.53;2.75;;;;;;;11.21;66.52;99316.47;5014318;28;20037;-79
2021/01/07 02:04:03;;;;;;;6.03;2.40;;;;;;;11.44;66.42;99359.41;5014636;28;20380;-77
2021/01/07 02:06:31;;;;;;;7.32;2.30;;;;;;;11.82;66.56;99406.81;5014348;28;20030;-77
2021/01/07 02:08:57;;;;;;;6.35;2.92;;;;;;;11.64;66.19;99370.19;5014161;28;20022;-79
2021/01/07 02:11:22;;;;;;;6.13;2.22;;;;;;;11.64;66.46;99364.06;5014295;28;20038;-77
2021/01/07 02:13:49;;;;;;;5.13;2.70;;;;;;;11.66;66.33;99365.53;5016829;28;20026;-81
2021/01/07 02:16:24;;;;;;;5.13;2.28;;;;;;;11.83;66.64;99383.81;5017676;28;20033;-79
2021/01/07 02:18:53;;;;;;;6.00;2.35;;;;;;;11.82;66.05;99374.25;5017565;28;20083;-76
2021/01/07 02:21:19;;;;;;;6.78;2.60;;;;;;;11.71;66.53;99359.66;5016516;28;20025;-79
2021/01/07 02:23:53;;;;;;;6.18;2.72;;;;;;;11.77;67.14;99358.91;5017391;28;20029;-76
2021/01/07 02:26:20;;;;;;;5.35;2.70;;;;;;;11.52;66.48;99328.56;5017444;28;20038;-78
2021/01/07 02:28:46;;;;;;;10.13;2.75;;;;;;;11.65;66.77;99333.97;5017393;28;20043;-79
2021/01/07 02:31:12;;;;;;;4.15;2.60;;;;;;;11.74;66.33;99351.34;5017359;28;20428;-77
2021/01/07 02:33:37;;;;;;;5.50;2.58;;;;;;;11.90;66.06;99374.97;5017447;28;20033;-78
2021/01/07 02:36:03;;;;;;;5.75;2.17;;;;;;;11.54;66.16;99318.63;5017164;28;20092;-79
2021/01/07 02:38:29;;;;;;;6.82;2.38;;;;;;;11.93;66.88;99369.28;5017301;28;20026;-80
2021/01/07 02:40:54;;;;;;;5.28;2.30;;;;;;;11.55;66.15;99292.00;5016036;28;20036;-79
2021/01/07 02:43:20;;;;;;;6.60;2.10;;;;;;;11.72;66.07;99311.88;5016000;28;20092;-76
2021/01/07 02:45:45;;;;;;;6.05;2.60;;;;;;;11.98;66.26;99337.78;5015827;28;20026;-78
2021/01/07 02:48:10;;;;;;;7.55;2.53;;;;;;;11.76;65.90;99309.66;5017282;28;20084;-82
2021/01/07 02:50:36;;;;;;;4.25;2.25;;;;;;;11.98;65.92;99332.47;5017044;28;20401;-78
2021/01/07 02:53:01;;;;;;;5.32;2.67;;;;;;;11.71;65.90;99289.06;5015705;28;20030;-80
2021/01/07 02:55:26;;;;;;;3.47;2.10;;;;;;;11.85;66.00;99313.84;5016996;28;20349;-78
2021/01/07 02:58:29;;;;;;;6.45;2.55;;;;;;;12.02;65.62;99315.22;5016852;28;20105;-80
2021/01/07 03:00:55;;;;;;;6.35;2.47;;;;;;;11.99;65.67;99320.88;5016679;28;20038;-79
2021/01/07 03:03:20;;;;;;;7.13;2.70;;;;;;;12.02;65.50;99327.63;5016780;28;20026;-78
2021/01/07 03:05:46;;;;;;;5.38;1.90;;;;;;;11.95;65.30;99313.53;5016625;28;20470;-78
2021/01/07 03:08:11;;;;;;;4.85;1.73;;;;;;;11.68;65.96;99280.72;5016728;28;20025;-81
2021/01/07 03:10:36;;;;;;;3.35;2.00;;;;;;;12.05;65.72;99343.13;5016801;28;20429;-83
2021/01/07 03:13:02;;;;;;;7.70;2.22;;;;;;;11.90;65.49;99311.47;5015348;28;20032;-81
2021/01/07 03:15:27;;;;;;;3.78;1.77;;;;;;;11.41;65.32;99232.91;5016556;28;20440;-81
2021/01/07 03:17:53;;;;;;;5.40;2.35;;;;;;;11.50;65.23;99246.81;5016395;28;20431;-80
2021/01/07 03:20:18;;;;;;;4.97;1.80;;;;;;;12.09;65.86;99339.06;5016467;28;20084;-78
2021/01/07 03:22:43;;;;;;;4.10;1.85;;;;;;;12.09;65.45;99347.00;5016268;28;20072;-81
2021/01/07 03:25:10;;;;;;;3.65;2.10;;;;;;;12.13;64.68;99355.38;5016231;28;20091;-81
2021/01/07 03:27:37;;;;;;;2.88;1.58;;;;;;;12.08;65.17;99332.97;5015237;28;20041;-81
2021/01/07 03:30:05;;;;;;;3.78;2.08;;;;;;;11.65;64.98;99260.75;5016012;28;20025;-80
2021/01/07 03:32:30;;;;;;;2.53;1.50;;;;;;;11.87;64.63;99289.84;5016144;28;20046;-78
2021/01/07 03:34:56;;;;;;;4.10;2.05;;;;;;;11.89;64.46;99277.22;5016110;28;20507;-80
2021/01/07 03:37:21;;;;;;;7.90;1.92;;;;;;;12.18;65.06;99335.28;5016224;28;20337;-82
2021/01/07 03:39:46;;;;;;;2.75;2.03;;;;;;;12.07;64.93;99352.50;5016005;28;20356;-79
2021/01/07 03:42:12;;;;;;;4.15;1.85;;;;;;;12.02;64.63;99315.22;5014831;28;20029;-79
2021/01/07 03:44:38;;;;;;;4.35;1.95;;;;;;;11.53;64.36;99233.19;5015964;28;20047;-82
2021/01/07 03:47:03;;;;;;;5.60;2.40;;;;;;;11.95;64.87;99295.00;5015795;28;20037;-81
2021/01/07 03:49:29;;;;;;;3.83;1.77;;;;;;;12.17;64.25;99320.41;5015999;28;20035;-81
2021/01/07 03:51:54;;;;;;;4.75;1.83;;;;;;;12.18;64.50;99337.09;5015742;28;20036;-83
2021/01/07 03:54:19;;;;;;;5.22;1.83;;;;;;;12.03;63.92;99316.84;5015812;28;20089;-81
2021/01/07 03:56:45;;;;;;;2.55;1.50;;;;;;;12.20;64.41;99335.91;5015752;28;20022;-82
2021/01/07 03:59:10;;;;;;;2.50;1.50;;;;;;;11.65;64.06;99258.09;5014648;28;20363;-79
2021/01/07 04:01:36;;;;;;;5.70;2.35;;;;;;;12.20;64.00;99345.66;5015628;28;20034;-80
2021/01/07 04:04:01;;;;;;;6.63;1.67;;;;;;;12.08;63.98;99313.63;5015564;28;20025;-80
2021/01/07 04:06:26;;;;;;;5.68;1.60;;;;;;;12.01;63.36;99294.25;5015545;28;20079;-81
2021/01/07 04:08:52;;;;;;;4.60;1.70;;;;;;;12.20;63.66;99313.91;5014421;28;20357;-79
2021/01/07 04:11:17;;;;;;;5.43;1.50;;;;;;;11.98;63.88;99279.56;5015555;28;20025;-81
2021/01/07 04:13:43;;;;;;;2.85;1.42;;;;;;;12.12;64.09;99292.88;5014447;28;20029;-77
2021/01/07 04:16:08;;;;;;;4.13;1.45;;;;;;;11.82;63.93;99237.50;5015508;28;20026;-81
2021/01/07 04:18:33;;;;;;;5.72;1.38;;;;;;;11.74;63.45;99227.03;5015489;28;20129;-79
2021/01/07 04:20:59;;;;;;;3.80;1.80;;;;;;;11.98;63.55;99266.34;5014236;28;20025;-82
2021/01/07 04:23:24;;;;;;;3.42;1.48;;;;;;;12.03;63.43;99284.28;5015343;28;20080;-78
2021/01/07 04:25:49;;;;;;;4.97;1.50;;;;;;;11.98;62.94;99270.81;5015231;28;20116;-81
2021/01/07 04:28:15;;;;;;;2.42;1.70;;;;;;;12.33;62.96;99311.34;5014138;28;20096;-81
2021/01/07 04:30:40;;;;;;;7.35;1.70;;;;;;;12.27;62.39;99307.63;5014115;28;20045;-78
2021/01/07 04:33:06;;;;;;;2.35;1.73;;;;;;;12.12;63.15;99290.25;5015033;28;20034;-77
2021/01/07 04:35:31;;;;;;;5.40;1.60;;;;;;;12.34;63.06;99328.84;5013453;28;20060;-80
2021/01/07 04:37:57;;;;;;;2.47;1.25;;;;;;;12.27;62.64;99314.75;5015009;28;20026;-81
2021/01/07 04:40:22;;;;;;;4.65;1.60;;;;;;;12.14;62.38;99307.56;5014124;28;20037;-78
2021/01/07 04:42:48;;;;;;;4.15;1.90;;;;;;;12.13;62.32;99294.53;5014809;28;20040;-78
2021/01/07 04:45:13;;;;;;;4.90;1.55;;;;;;;11.69;62.30;99234.75;5015117;28;20030;-78
2021/01/07 04:47:40;;;;;;;3.22;1.30;;;;;;;12.06;62.47;99287.34;5014973;28;20083;-78
2021/01/07 04:50:06;;;;;;;2.70;1.45;;;;;;;12.02;62.39;99283.47;5015100;28;20056;-80
2021/01/07 04:52:33;;;;;;;6.15;1.77;;;;;;;12.25;63.01;99325.53;5014907;28;20033;-81
2021/01/07 04:54:59;;;;;;;4.07;2.10;;;;;;;12.33;62.88;99333.34;5014930;28;20409;-79
2021/01/07 04:57:25;;;;;;;4.07;2.20;;;;;;;12.33;63.04;99335.16;5014893;28;20345;-77
2021/01/07 04:59:50;;;;;;;3.92;1.67;;;;;;;12.22;62.72;99311.88;5014823;28;20026;-78
2021/01/07 05:02:17;;;;;;;4.15;1.52;;;;;;;12.30;63.15;99317.84;5014761;28;20466;-76
2021/01/07 05:04:54;;;;;;;4.28;2.20;;;;;;;12.24;63.22;99308.03;5014840;28;20468;-77
2021/01/07 05:07:21;;;;;;;5.50;2.75;;;;;;;11.85;63.14;99254.81;5015094;28;20088;-77
2021/01/07 05:09:59;;;;;;;5.10;1.90;;;;;;;12.08;63.39;99297.75;4997429;28;20038;-80
2021/01/07 05:12:24;;;;;;;7.55;2.65;;;;;;;12.24;63.47;99307.22;5014791;28;20079;-77
2021/01/07 05:14:49;;;;;;;5.93;2.58;;;;;;;11.95;62.94;99273.84;5014732;28;20415;-76
2021/01/07 05:17:16;;;;;;;3.88;2.33;;;;;;;11.94;63.37;99285.44;5014681;28;20065;-80
2021/01/07 05:19:41;;;;;;;4.72;2.38;;;;;;;12.19;63.26;99310.44;5014785;28;20076;-78
2021/01/07 05:22:07;;;;;;;7.28;2.40;;;;;;;12.08;63.83;99298.56;5014586;28;20352;-78
2021/01/07 05:24:33;;;;;;;5.40;1.90;;;;;;;12.16;63.38;99315.31;5013618;28;20349;-76
2021/01/07 05:27:17;;;;;;;4.60;2.00;;;;;;;11.95;63.90;99279.94;5014467;28;20026;-80
2021/01/07 05:29:43;;;;;;;6.80;2.05;;;;;;;11.65;63.83;99241.44;5014603;28;20434;-79
2021/01/07 05:32:10;;;;;;;4.75;1.80;;;;;;;11.89;64.25;99282.53;5014402;28;20026;-79
2021/01/07 05:34:47;;;;;;;5.35;2.40;;;;;;;12.16;64.35;99317.94;5014545;28;20030;-76
2021/01/07 05:37:17;;;;;;;2.92;1.83;;;;;;;12.16;64.43;99317.94;5013480;28;20072;-78
2021/01/07 05:39:47;;;;;;;3.15;1.88;;;;;;;11.89;64.25;99266.66;5013456;28;20034;-78
2021/01/07 05:42:13;;;;;;;3.15;1.90;;;;;;;12.04;63.53;99296.50;5014274;28;20064;-81
2021/01/07 05:44:45;;;;;;;5.85;2.28;;;;;;;12.13;64.23;99321.81;5014426;28;20382;-76
2021/01/07 05:47:31;;;;;;;6.88;2.78;;;;;;;12.21;64.29;99334.88;5016314;28;20030;-77
2021/01/07 05:49:57;;;;;;;3.80;1.90;;;;;;;12.26;63.63;99339.59;5017790;28;20137;-80
2021/01/07 05:52:29;;;;;;;4.75;2.38;;;;;;;12.12;64.26;99332.59;5018137;28;20022;-77
2021/01/07 05:54:55;;;;;;;3.72;1.85;;;;;;;12.22;63.64;99339.16;5016811;28;20049;-78
2021/01/07 05:57:22;;;;;;;4.15;2.55;;;;;;;11.87;63.98;99290.66;5017974;28;20413;-76
2021/01/07 05:59:48;;;;;;;4.55;2.30;;;;;;;12.26;63.71;99342.25;5017767;28;20440;-78
2021/01/07 06:02:16;;;;;;;4.47;2.72;;;;;;;12.24;63.32;99347.72;5017976;28;20030;-76
2021/01/07 06:04:43;;;;;;;4.07;2.20;;;;;;;12.11;63.68;99328.28;5017774;28;20029;-76
2021/01/07 06:07:11;;;;;;;6.28;2.97;;;;;;;12.07;63.71;99339.28;5017666;28;20034;-76
2021/01/07 06:09:37;;;;;;;5.85;2.28;;;;;;;12.06;63.44;99340.28;5017584;28;20372;-77
2021/01/07 06:12:02;;;;;;;6.30;2.88;;;;;;;11.73;64.41;99289.69;5016436;28;20026;-75
2021/01/07 06:14:28;;;;;;;6.22;2.30;;;;;;;11.82;63.39;99298.34;5017556;28;20033;-78
2021/01/07 06:16:55;;;;;;;6.82;2.70;;;;;;;12.12;64.16;99357.22;5017519;28;20100;-76
2021/01/07 06:19:31;;;;;;;4.20;2.28;;;;;;;12.21;63.52;99384.34;5017443;28;20037;-76
2021/01/07 06:21:59;;;;;;;9.13;2.78;;;;;;;12.23;64.14;99390.28;5017424;28;20030;-75
2021/01/07 06:24:25;;;;;;;4.55;2.97;;;;;;;11.85;63.57;99332.34;5016429;28;20448;-77
2021/01/07 06:26:51;;;;;;;4.95;2.72;;;;;;;12.03;64.18;99369.78;5017197;28;20037;-76
2021/01/07 06:29:16;;;;;;;5.82;3.15;;;;;;;11.77;63.94;99327.16;5017467;28;20025;-76
2021/01/07 06:31:42;;;;;;;5.03;3.08;;;;;;;11.96;64.27;99365.44;5017232;28;20026;-77
2021/01/07 06:34:08;;;;;;;4.25;3.22;;;;;;;12.14;63.86;99384.31;5016007;28;20033;-76
2021/01/07 06:36:50;;;;;;;4.40;2.75;;;;;;;12.15;64.02;99375.34;5016000;28;20026;-76
2021/01/07 06:39:20;;;;;;;8.68;5.13;;;;;;;12.23;63.88;99388.44;5008473;28;20397;-75
2021/01/07 06:41:57;;;;;;;9.15;4.35;;;;;;;12.25;63.77;99380.31;5004836;28;20165;-80
2021/01/07 06:44:25;;;;;;;7.53;3.95;;;;;;;11.70;63.61;99289.28;5018612;28;20451;-78
2021/01/07 06:46:50;;;;;;;7.95;5.43;;;;;;;12.12;63.82;99341.34;5028867;28;20033;-76
2021/01/07 06:49:20;;;;;;;9.68;5.65;;;;;;;12.31;63.91;99372.41;5019859;28;20103;-75
2021/01/07 06:51:50;;;;;;;10.65;6.57;;;;;;;12.24;64.17;99373.38;5016762;28;20087;-76
2021/01/07 06:54:17;;;;;;;10.27;7.05;;;;;;;12.23;63.51;99363.81;5014465;28;20425;-76
2021/01/07 06:56:43;;;;;;;12.45;7.20;;;;;;;12.16;64.01;99352.34;5016642;28;20120;-76
2021/01/07 06:59:12;;;;;;;10.32;7.10;;;;;;;11.79;64.30;99280.22;5024234;28;20120;-76
2021/01/07 07:01:46;;;;;;;13.02;8.25;;;;;;;11.93;63.87;99329.59;5021204;28;20321;-75
2021/01/07 07:04:23;;;;;;;16.77;8.98;;;;;;;12.17;64.03;99383.09;5016479;28;20025;-76
2021/01/07 07:06:57;;;;;;;26.00;10.52;;;;;;;12.22;63.70;99394.75;5012786;28;20476;-76
2021/01/07 07:09:25;;;;;;;16.75;9.93;;;;;;;12.28;63.65;99407.22;5010028;28;20038;-76
2021/01/07 07:11:54;;;;;;;22.08;11.73;;;;;;;12.37;63.97;99419.31;5019702;28;20101;-76
2021/01/07 07:14:21;;;;;;;30.17;17.95;;;;;;;12.32;63.01;99420.88;5020347;28;20466;-75
2021/01/07 07:16:49;;;;;;;31.52;22.08;;;;;;;12.14;62.93;99415.25;5016213;28;20029;-75
2021/01/07 07:19:25;;;;;;;35.25;25.35;;;;;;;11.47;61.83;99342.34;5009834;28;20026;-82
2021/01/07 07:22:01;;;;;;;40.90;25.17;;;;;;;11.53;62.43;99375.97;5019171;28;20471;-84
2021/01/07 07:24:42;;;;;;;39.33;24.45;;;;;;;11.28;62.09;99372.06;5012926;28;20033;-77
2021/01/07 07:27:10;;;;;;;37.45;24.88;;;;;;;11.31;62.89;99398.09;5015845;28;20034;-78
2021/01/07 07:29:38;;;;;;;38.13;24.67;;;;;;;11.44;62.21;99419.41;5004289;28;20045;-77
2021/01/07 07:32:20;;;;;;;33.33;23.88;;;;;;;11.39;61.68;99443.75;5005734;28;20064;-77
2021/01/07 07:34:49;;;;;;;43.17;27.52;;;;;;;11.27;62.20;99421.44;5012464;28;20405;-77
2021/01/07 07:37:25;;;;;;;40.22;25.85;;;;;;;11.29;62.11;99440.59;5009104;28;20026;-76
2021/01/07 07:39:59;;;;;;;36.83;24.15;;;;;;;11.26;62.62;99437.50;5008585;28;20030;-76
2021/01/07 07:42:28;;;;;;;41.17;26.02;;;;;;;11.18;62.60;99434.94;5002816;28;20054;-77
2021/01/07 07:44:53;;;;;;;39.90;26.73;;;;;;;11.27;62.25;99429.38;5014989;28;20476;-77
2021/01/07 07:47:22;;;;;;;39.75;26.63;;;;;;;10.87;62.50;99362.00;5005005;28;20054;-76
2021/01/07 07:49:58;;;;;;;40.38;26.75;;;;;;;10.47;62.87;99292.03;5011018;28;20029;-77
2021/01/07 07:52:24;;;;;;;34.78;24.58;;;;;;;11.30;62.87;99421.06;5013960;28;20029;-79
2021/01/07 07:55:03;;;;;;;40.40;25.70;;;;;;;11.22;62.38;99405.31;5007257;28;20029;-76
2021/01/07 07:57:29;;;;;;;42.63;28.20;;;;;;;11.34;62.68;99419.69;5010669;28;20077;-77
2021/01/07 07:59:54;;;;;;;43.67;29.42;;;;;;;11.37;62.53;99437.00;5012751;28;20030;-77
2021/01/07 08:02:20;;;;;;;38.88;28.40;;;;;;;11.32;62.38;99434.09;5012892;28;20030;-75
2021/01/07 08:04:45;;;;;;;39.08;28.65;;;;;;;11.21;62.53;99410.78;5010204;28;20029;-76
2021/01/07 08:07:11;;;;;;;43.55;28.75;;;;;;;11.38;62.42;99449.22;5008240;28;20034;-75
2021/01/07 08:09:36;;;;;;;39.60;26.33;;;;;;;11.36;62.34;99446.75;5006787;28;20041;-76
2021/01/07 08:12:02;;;;;;;41.08;27.05;;;;;;;10.95;61.83;99376.91;5000611;28;20031;-79
2021/01/07 08:14:29;;;;;;;39.60;26.50;;;;;;;11.24;61.72;99413.88;5009245;28;20054;-76
2021/01/07 08:16:56;;;;;;;41.40;26.42;;;;;;;10.86;61.77;99333.13;5014751;28;20167;-75
2021/01/07 08:19:24;;;;;;;40.55;27.40;;;;;;;11.33;61.56;99411.97;5013627;28;20032;-75
2021/01/07 08:21:52;;;;;;;40.80;27.65;;;;;;;11.32;62.09;99411.13;5012297;28;20106;-77
2021/01/07 08:24:20;;;;;;;44.67;27.30;;;;;;;11.14;62.16;99386.91;5007123;28;20025;-75
2021/01/07 08:27:05;;;;;;;39.80;25.67;;;;;;;11.40;62.05;99416.31;5008532;28;20373;-77
2021/01/07 08:29:34;;;;;;;40.55;25.60;;;;;;;11.45;61.79;99435.06;5018912;28;20053;-75
2021/01/07 08:32:01;;;;;;;56.00;35.08;;;;;;;11.35;62.10;99388.78;5007223;28;20034;-77
2021/01/07 08:34:30;;;;;;;48.35;32.88;;;;;;;11.55;61.76;99407.50;5002355;28;20096;-76
2021/01/07 08:37:05;;;;;;;49.40;31.85;;;;;;;11.10;61.30;99340.72;5011014;28;20030;-76
2021/01/07 08:39:36;;;;;;;51.10;31.95;;;;;;;11.67;61.51;99413.94;5012212;28;20038;-77
2021/01/07 08:42:02;;;;;;;45.00;30.17;;;;;;;11.21;61.79;99332.34;5011532;28;20030;-76
2021/01/07 08:44:27;;;;;;;53.60;33.75;;;;;;;11.82;61.42;99401.50;5009374;28;20038;-77
2021/01/07 08:46:53;;;;;;;48.55;32.95;;;;;;;11.62;61.82;99344.94;5003842;28;20168;-78
2021/01/07 08:49:20;;;;;;;49.65;31.95;;;;;;;11.61;61.37;99328.25;4999446;28;20026;-76
2021/01/07 08:51:47;;;;;;;48.00;29.92;;;;;;;11.93;61.00;99356.06;5002003;28;20030;-76
2021/01/07 08:54:14;;;;;;;43.75;29.80;;;;;;;12.18;60.80;99390.84;5003533;28;20034;-78
2021/01/07 08:56:44;;;;;;;23.83;15.10;;;;;;;12.17;61.28;99383.09;5011595;28;20030;-75
2021/01/07 08:59:32;;;;;;;14.20;7.38;;;;;;;12.43;61.39;99396.53;5011303;28;20029;-78
2021/01/07 09:02:04;;;;;;;5.38;4.25;;;;;;;12.30;60.89;99346.13;5009175;28;20108;-76
2021/01/07 09:04:40;;;;;;;7.00;2.92;;;;;;;12.80;60.58;99376.00;5011822;28;20037;-76
2021/01/07 09:07:15;;;;;;;7.97;4.47;;;;;;;12.99;60.35;99376.09;5006376;28;20079;-78
2021/01/07 09:09:48;;;;;;;7.20;4.18;;;;;;;13.15;59.73;99371.44;4999130;28;20045;-77
2021/01/07 09:12:23;;;;;;;7.80;2.67;;;;;;;13.31;59.41;99369.28;5022042;28;20110;-78
2021/01/07 09:14:57;;;;;;;3.42;2.35;;;;;;;13.45;57.94;99364.88;5008926;28;20148;-78
2021/01/07 09:17:25;;;;;;;3.20;2.10;;;;;;;13.27;58.09;99307.06;5010311;28;20034;-78
2021/01/07 09:19:52;;;;;;;3.83;2.15;;;;;;;13.60;57.94;99344.28;5005167;28;20029;-79
2021/01/07 09:22:18;;;;;;;5.03;2.47;;;;;;;13.76;57.48;99364.28;5015176;28;20089;-77
2021/01/07 09:24:44;;;;;;;4.88;2.47;;;;;;;13.48;57.19;99297.34;5009022;28;20084;-77
2021/01/07 09:27:15;;;;;;;5.95;2.85;;;;;;;13.88;56.63;99354.72;5013233;28;20451;-76
2021/01/07 09:29:41;;;;;;;5.57;2.47;;;;;;;14.09;56.26;99342.25;5001497;28;20030;-79
2021/01/07 09:32:08;;;;;;;5.28;2.10;;;;;;;14.14;56.26;99358.41;5017739;28;20037;-77
2021/01/07 09:34:34;;;;;;;5.50;2.78;;;;;;;14.18;55.75;99344.50;5013744;28;20456;-77
2021/01/07 09:37:10;;;;;;;4.57;2.75;;;;;;;14.24;55.51;99356.97;5009226;28;20064;-75
2021/01/07 09:39:36;;;;;;;5.20;2.95;;;;;;;13.99;55.77;99319.59;5015683;28;20030;-77
2021/01/07 09:42:03;;;;;;;5.25;2.60;;;;;;;13.79;55.66;99286.94;5020194;28;20037;-80
2021/01/07 09:44:29;;;;;;;5.93;2.65;;;;;;;14.32;55.77;99347.97;5013745;28;20037;-78
2021/01/07 09:46:56;;;;;;;3.42;2.55;;;;;;;14.34;55.85;99351.22;5015556;28;20036;-77
2021/01/07 09:49:22;;;;;;;5.00;2.72;;;;;;;14.31;55.72;99338.38;5023372;28;20440;-76
2021/01/07 09:51:48;;;;;;;5.28;2.17;;;;;;;14.41;55.93;99356.53;5012029;28;20042;-76
2021/01/07 09:54:15;;;;;;;5.57;2.75;;;;;;;14.07;55.99;99293.84;5006994;28;20034;-76
2021/01/07 09:56:41;;;;;;;8.15;5.05;;;;;;;14.46;56.22;99354.09;5023462;28;20025;-76
2021/01/07 09:59:07;;;;;;;6.85;2.63;;;;;;;14.37;56.17;99332.22;5023623;28;20040;-78
2021/01/07 10:01:33;;;;;;;6.05;3.72;;;;;;;14.41;56.37;99322.00;5012886;28;20091;-77
2021/01/07 10:03:58;;;;;;;7.72;4.60;;;;;;;14.36;56.48;99312.00;5016125;28;20034;-78
2021/01/07 10:06:24;;;;;;;5.90;2.58;;;;;;;14.56;56.69;99331.38;5016241;28;20111;-76
2021/01/07 10:08:49;;;;;;;7.20;2.13;;;;;;;14.30;56.29;99278.31;5003879;28;20037;-76
2021/01/07 10:11:15;;;;;;;6.28;2.28;;;;;;;14.69;56.04;99324.41;5009523;28;20044;-75
2021/01/07 10:13:40;;;;;;;4.75;2.03;;;;;;;14.28;56.29;99253.81;5005425;28;20041;-77
2021/01/07 10:16:10;;;;;;;3.58;2.08;;;;;;;14.52;55.97;99297.47;5003648;28;20080;-77
2021/01/07 10:18:35;;;;;;;2.60;1.70;;;;;;;14.37;55.88;99263.16;5011432;28;20029;-77
2021/01/07 10:21:01;;;;;;;5.20;1.80;;;;;;;14.82;55.91;99319.84;5015020;28;20067;-80
2021/01/07 10:23:28;;;;;;;3.72;2.10;;;;;;;14.77;55.83;99300.25;5009279;28;20041;-81
2021/01/07 10:25:56;;;;;;;5.28;2.35;;;;;;;14.84;55.58;99291.22;5015984;28;20026;-78
2021/01/07 10:28:26;;;;;;;4.32;2.20;;;;;;;14.82;55.73;99284.47;5000066;28;20421;-80
2021/01/07 10:30:52;;;;;;;4.57;2.55;;;;;;;14.42;55.92;99234.16;5001261;28;20052;-78
2021/01/07 10:33:17;;;;;;;5.95;2.97;;;;;;;14.52;55.62;99229.22;5002975;28;20496;-78
2021/01/07 10:35:43;;;;;;;6.30;2.50;;;;;;;14.92;55.73;99283.03;5014772;28;20372;-76
2021/01/07 10:38:10;;;;;;;4.43;2.40;;;;;;;14.87;55.72;99290.81;5015229;28;20025;-77
2021/01/07 10:40:43;;;;;;;7.18;3.13;;;;;;;14.98;55.16;99286.69;5001994;28;20034;-78
2021/01/07 10:43:11;;;;;;;10.80;4.95;;;;;;;14.48;54.99;99204.09;5010114;28;20100;-80
2021/01/07 10:45:37;;;;;;;6.78;4.28;;;;;;;14.76;55.32;99258.75;5005719;28;20046;-79
2021/01/07 10:48:08;;;;;;;5.75;3.33;;;;;;;14.80;54.92;99265.28;5006730;28;20483;-77
2021/01/07 10:50:35;;;;;;;7.88;4.20;;;;;;;14.44;55.53;99221.50;4995787;28;20030;-78
2021/01/07 10:53:12;;;;;;;7.25;3.45;;;;;;;14.92;55.04;99283.03;4998165;28;20429;-79
2021/01/07 10:55:50;;;;;;;5.82;3.00;;;;;;;14.90;55.14;99279.78;5016388;28;20022;-81
2021/01/07 10:58:34;;;;;;;8.27;3.60;;;;;;;14.68;55.39;99240.41;5015901;28;20399;-81
2021/01/07 11:01:21;;;;;;;5.13;2.67;;;;;;;14.92;55.29;99267.09;5009280;28;20041;-78
2021/01/07 11:04:02;;;;;;;7.90;4.60;;;;;;;14.93;55.50;99268.72;5008284;28;20109;-78
2021/01/07 11:06:32;;;;;;;9.52;4.95;;;;;;;14.92;55.60;99271.59;4996317;28;20037;-78
2021/01/07 11:09:13;;;;;;;8.32;4.68;;;;;;;14.97;55.42;99263.78;5008701;28;20103;-82
2021/01/07 11:11:50;;;;;;;7.95;4.07;;;;;;;15.06;55.34;99257.19;5016370;28;20101;-78
2021/01/07 11:14:26;;;;;;;8.30;2.85;;;;;;;14.94;55.14;99237.63;5009333;28;20183;-77
2021/01/07 11:16:55;;;;;;;4.75;2.03;;;;;;;15.18;54.82;99257.31;5012098;28;20030;-77
2021/01/07 11:19:23;;;;;;;5.80;2.53;;;;;;;15.31;54.81;99275.03;5000278;28;20113;-79
2021/01/07 11:21:57;;;;;;;5.45;2.67;;;;;;;15.05;54.73;99191.75;5017771;28;20038;-79
2021/01/07 11:24:22;;;;;;;4.30;2.40;;;;;;;15.46;54.40;99249.75;5007853;28;20026;-81
2021/01/07 11:26:49;;;;;;;7.22;2.55;;;;;;;15.17;53.92;99199.84;5019441;28;20433;-80
2021/01/07 11:29:16;;;;;;;4.68;2.00;;;;;;;15.62;53.79;99251.09;5015790;28;20025;-80
2021/01/07 11:31:43;;;;;;;3.10;1.88;;;;;;;15.60;53.44;99253.13;5021024;28;20049;-81
2021/01/07 11:34:11;;;;;;;4.85;2.20;;;;;;;15.53;52.83;99215.91;5014118;28;20492;-79
2021/01/07 11:36:46;;;;;;;6.28;2.05;;;;;;;15.13;52.81;99161.41;5031885;28;20375;-78